createdAt,value
2023-07-24T00:00:37.408Z,2.58
2023-07-24T00:04:40.753Z,2.03
2023-07-24T00:08:44.106Z,2.35
2023-07-24T00:12:48.919Z,2.08
2023-07-24T00:16:53.298Z,2.28
2023-07-24T00:20:56.776Z,3.42
2023-07-24T00:25:00.332Z,2.88
2023-07-24T00:29:04.988Z,2.50
2023-07-24T00:33:08.447Z,2.55
2023-07-24T00:37:11.761Z,2.53
2023-07-24T00:41:18.383Z,2.42
2023-07-24T00:45:24.795Z,2.42
2023-07-24T00:49:28.620Z,2.92
2023-07-24T00:53:31.996Z,3.20
2023-07-24T00:57:35.885Z,3.05
2023-07-24T01:01:44.065Z,2.40
2023-07-24T01:05:47.593Z,2.38
2023-07-24T01:09:52.299Z,2.63
2023-07-24T01:14:01.942Z,2.60
2023-07-24T01:18:11.641Z,2.03
2023-07-24T01:22:22.252Z,2.03
2023-07-24T01:26:28.255Z,2.40
2023-07-24T01:30:31.970Z,3.10
2023-07-24T01:39:06.847Z,2.80
2023-07-24T01:43:11.625Z,3.03
2023-07-24T01:47:14.994Z,2.65
2023-07-24T01:51:18.697Z,2.97
2023-07-24T01:55:21.851Z,2.97
2023-07-24T01:59:27.421Z,2.42
2023-07-24T02:03:30.701Z,3.30
2023-07-24T02:07:33.778Z,2.88
2023-07-24T02:11:37.088Z,3.75
2023-07-24T02:15:41.900Z,3.22
2023-07-24T02:19:45.465Z,3.00
2023-07-24T02:23:48.609Z,3.38
2023-07-24T02:27:52.344Z,3.63
2023-07-24T02:31:57.614Z,2.90
2023-07-24T02:36:01.208Z,3.58
2023-07-24T02:40:04.415Z,2.92
2023-07-24T02:44:07.652Z,3.33
2023-07-24T02:48:12.626Z,2.70
2023-07-24T02:52:16.237Z,3.28
2023-07-24T02:56:19.699Z,2.95
2023-07-24T03:00:23.008Z,2.63
2023-07-24T03:04:27.805Z,2.80
2023-07-24T03:08:31.558Z,3.53
2023-07-24T03:12:34.860Z,2.75
2023-07-24T03:16:38.480Z,3.17
2023-07-24T03:20:43.058Z,3.05
2023-07-24T03:24:46.738Z,3.25
2023-07-24T03:28:50.267Z,3.50
2023-07-24T03:32:54.006Z,3.75
2023-07-24T03:36:58.597Z,4.00
2023-07-24T03:41:01.893Z,2.60
2023-07-24T03:45:05.592Z,3.95
2023-07-24T03:49:09.334Z,3.42
2023-07-24T03:53:13.814Z,4.03
2023-07-24T03:57:16.979Z,2.67
2023-07-24T04:01:20.013Z,3.50
2023-07-24T04:05:23.384Z,3.40
2023-07-24T04:09:27.899Z,2.83
2023-07-24T04:13:31.273Z,2.83
2023-07-24T04:17:34.464Z,3.00
2023-07-24T04:21:38.085Z,3.83
2023-07-24T04:25:42.700Z,2.90
2023-07-24T04:29:45.813Z,3.83
2023-07-24T04:33:48.820Z,3.53
2023-07-24T04:37:52.763Z,4.05
2023-07-24T04:41:57.435Z,3.33
2023-07-24T04:46:00.685Z,3.22
2023-07-24T04:50:03.820Z,3.47
2023-07-24T04:54:07.238Z,3.75
2023-07-24T04:58:12.115Z,4.40
2023-07-24T05:02:15.538Z,3.60
2023-07-24T05:06:18.565Z,3.55
2023-07-24T05:10:22.085Z,3.50
2023-07-24T05:14:26.891Z,3.75
2023-07-24T05:18:30.314Z,4.00
2023-07-24T05:22:33.489Z,2.90
2023-07-24T05:26:36.853Z,3.35
2023-07-24T05:30:41.708Z,3.72
2023-07-24T05:34:46.520Z,3.83
2023-07-24T05:38:49.675Z,3.85
2023-07-24T05:42:52.899Z,3.85
2023-07-24T05:46:57.762Z,3.63
2023-07-24T05:51:01.513Z,3.70
2023-07-24T05:55:05.575Z,4.20
2023-07-24T05:59:09.228Z,3.22
2023-07-24T06:03:14.919Z,3.45
2023-07-24T06:07:18.338Z,3.20
2023-07-24T06:11:21.480Z,3.90
2023-07-24T06:15:24.490Z,3.53
2023-07-24T06:19:28.926Z,4.50
2023-07-24T06:23:31.867Z,3.85
2023-07-24T06:27:34.986Z,3.90
2023-07-24T06:31:38.934Z,4.38
2023-07-24T06:35:43.717Z,3.67
2023-07-24T06:39:47.017Z,4.22
2023-07-24T06:43:50.101Z,4.18
2023-07-24T06:47:53.461Z,4.32
2023-07-24T06:51:57.983Z,4.38
2023-07-24T06:56:01.293Z,4.40
2023-07-24T07:00:04.741Z,4.40
2023-07-24T07:04:07.991Z,4.35
2023-07-24T07:08:12.641Z,4.50
2023-07-24T07:12:15.737Z,4.30
2023-07-24T07:16:20.288Z,3.45
2023-07-24T07:20:23.854Z,4.55
2023-07-24T07:24:28.396Z,4.40
2023-07-24T07:28:31.923Z,4.72
2023-07-24T07:32:35.204Z,4.45
2023-07-24T07:36:38.407Z,3.58
2023-07-24T07:40:42.987Z,3.95
2023-07-24T07:44:46.410Z,3.60
2023-07-24T07:48:50.318Z,3.72
2023-07-24T07:52:54.538Z,3.60
2023-07-24T07:56:59.027Z,3.97
2023-07-24T08:01:06.265Z,3.60
2023-07-24T08:05:15.152Z,3.58
2023-07-24T08:09:25.536Z,4.13
2023-07-24T08:13:30.135Z,3.72
2023-07-24T08:17:33.349Z,3.33
2023-07-24T08:21:36.913Z,3.05
2023-07-24T08:25:40.092Z,3.70
2023-07-24T08:29:44.796Z,3.08
2023-07-24T08:33:48.298Z,3.90
2023-07-24T08:37:51.678Z,4.18
2023-07-24T08:41:54.800Z,3.58
2023-07-24T08:46:01.013Z,3.42
2023-07-24T08:50:05.003Z,3.25
2023-07-24T08:54:09.382Z,3.50
2023-07-24T08:58:12.687Z,3.38
2023-07-24T09:02:17.007Z,3.45
2023-07-24T09:06:20.107Z,2.85
2023-07-24T09:10:27.163Z,3.63
2023-07-24T09:14:32.785Z,3.30
2023-07-24T09:18:44.612Z,3.85
2023-07-24T09:23:10.499Z,3.50
2023-07-24T09:27:15.235Z,3.40
2023-07-24T09:31:18.425Z,3.00
2023-07-24T09:35:27.196Z,3.22
2023-07-24T09:39:30.687Z,3.17
2023-07-24T09:43:40.441Z,3.13
2023-07-24T09:51:57.119Z,3.53
2023-07-24T09:56:01.878Z,2.72
2023-07-24T10:00:06.133Z,3.58
2023-07-24T10:04:10.403Z,3.10
2023-07-24T10:08:16.947Z,3.05
2023-07-24T10:12:21.182Z,3.92
2023-07-24T10:16:24.556Z,2.78
2023-07-24T10:20:35.789Z,3.83
2023-07-24T10:24:42.915Z,3.63
2023-07-24T10:28:48.955Z,3.38
2023-07-24T10:32:55.839Z,3.10
2023-07-24T10:37:04.798Z,3.53
2023-07-24T10:41:10.600Z,3.42
2023-07-24T10:45:14.422Z,4.00
2023-07-24T10:49:26.259Z,3.70
2023-07-24T10:57:34.688Z,3.95
2023-07-24T11:01:38.186Z,3.88
2023-07-24T11:05:43.137Z,3.00
2023-07-24T11:09:46.645Z,3.47
2023-07-24T11:13:51.374Z,3.17
2023-07-24T11:17:54.631Z,4.10
2023-07-24T11:21:59.935Z,3.33
2023-07-24T11:26:05.288Z,3.47
2023-07-24T11:30:11.239Z,3.90
2023-07-24T11:34:15.509Z,3.30
2023-07-24T11:38:19.277Z,3.67
2023-07-24T11:42:22.492Z,3.40
2023-07-24T11:46:28.021Z,4.00
2023-07-24T11:50:31.728Z,4.07
2023-07-24T11:54:36.777Z,3.60
2023-07-24T11:58:40.113Z,3.30
2023-07-24T12:02:45.982Z,3.63
2023-07-24T12:06:49.285Z,3.83
2023-07-24T12:10:52.735Z,4.65
2023-07-24T12:14:55.850Z,3.30
2023-07-24T12:19:00.789Z,3.90
2023-07-24T12:23:04.444Z,3.15
2023-07-24T12:27:08.070Z,3.75
2023-07-24T12:31:11.360Z,3.47
2023-07-24T12:35:17.295Z,3.72
2023-07-24T12:39:20.625Z,2.38
2023-07-24T12:43:23.741Z,3.67
2023-07-24T12:47:27.038Z,3.35
2023-07-24T12:51:31.776Z,2.65
2023-07-24T12:55:35.307Z,3.10
2023-07-24T12:59:38.684Z,3.40
2023-07-24T13:03:42.040Z,3.90
2023-07-24T13:07:47.771Z,2.40
2023-07-24T13:11:52.980Z,2.28
2023-07-24T13:15:56.202Z,3.33
2023-07-24T13:19:59.442Z,2.88
2023-07-24T13:24:04.066Z,2.80
2023-07-24T13:28:07.368Z,2.47
2023-07-24T13:32:11.184Z,3.00
2023-07-24T13:36:15.232Z,3.03
2023-07-24T13:40:20.114Z,3.17
2023-07-24T13:44:23.506Z,3.72
2023-07-24T13:48:26.955Z,3.33
2023-07-24T13:52:30.082Z,3.08
2023-07-24T13:56:37.207Z,2.85
2023-07-24T14:00:40.759Z,2.83
2023-07-24T14:04:43.764Z,2.90
2023-07-24T14:08:46.909Z,2.50
2023-07-24T14:12:51.581Z,2.28
2023-07-24T14:16:54.741Z,2.95
2023-07-24T14:20:58.075Z,2.47
2023-07-24T14:25:01.744Z,2.40
2023-07-24T14:29:06.348Z,2.97
2023-07-24T14:33:09.593Z,2.90
2023-07-24T14:37:12.846Z,3.22
2023-07-24T14:41:17.011Z,2.90
2023-07-24T14:45:22.046Z,3.00
2023-07-24T14:49:25.181Z,2.70
2023-07-24T14:53:28.513Z,3.15
2023-07-24T14:57:31.493Z,2.13
2023-07-24T15:01:36.514Z,2.80
2023-07-24T15:05:40.085Z,3.08
2023-07-24T15:09:44.580Z,2.70
2023-07-24T15:13:48.325Z,2.67
2023-07-24T15:17:53.253Z,2.45
2023-07-24T15:21:56.958Z,2.33
2023-07-24T15:26:01.220Z,2.55
2023-07-24T15:30:04.439Z,2.85
2023-07-24T15:34:09.696Z,3.63
2023-07-24T15:38:13.846Z,3.10
2023-07-24T15:42:17.097Z,3.08
2023-07-24T15:46:20.268Z,3.22
2023-07-24T15:50:25.033Z,3.90
2023-07-24T15:54:28.496Z,4.18
2023-07-24T15:58:34.256Z,3.83
2023-07-24T16:02:37.635Z,3.30
2023-07-24T16:06:42.168Z,3.90
2023-07-24T16:10:47.724Z,3.05
2023-07-24T16:14:51.394Z,2.88
2023-07-24T16:19:13.814Z,3.90
2023-07-24T16:23:18.595Z,4.28
2023-07-24T16:27:24.036Z,3.50
2023-07-24T16:31:34.977Z,3.53
2023-07-24T17:18:44.268Z,2.92
2023-07-24T17:35:34.447Z,2.45
2023-07-24T17:39:37.448Z,2.17
2023-07-24T17:43:40.921Z,1.85
2023-07-24T17:47:44.220Z,2.15
2023-07-24T17:51:49.258Z,3.38
2023-07-24T17:55:52.428Z,2.55
2023-07-24T17:59:55.859Z,3.38
2023-07-24T18:03:59.019Z,2.97
2023-07-24T18:08:05.487Z,3.47
2023-07-24T18:12:09.460Z,3.38
2023-07-24T18:16:17.565Z,2.90
2023-07-24T18:20:25.758Z,3.28
2023-07-24T18:24:33.810Z,2.65
2023-07-24T18:28:36.868Z,3.83
2023-07-24T18:32:44.588Z,3.28
2023-07-24T18:36:47.807Z,3.45
2023-07-24T18:40:52.978Z,2.13
2023-07-24T18:44:56.052Z,3.58
2023-07-24T18:49:04.712Z,2.70
2023-07-24T18:53:07.733Z,2.75
2023-07-24T18:57:14.647Z,2.67
2023-07-24T19:01:18.073Z,2.53
2023-07-24T19:05:21.756Z,2.97
2023-07-24T19:09:25.306Z,2.50
2023-07-24T19:13:37.089Z,2.20
2023-07-24T19:17:54.524Z,2.25
2023-07-24T19:21:59.481Z,1.73
2023-07-24T19:26:02.722Z,1.80
2023-07-24T19:30:15.024Z,1.95
2023-07-24T19:34:21.341Z,1.77
2023-07-24T19:38:24.831Z,1.60
2023-07-24T19:42:38.308Z,1.38
2023-07-24T19:46:43.551Z,1.63
2023-07-24T19:50:56.130Z,1.55
2023-07-24T19:55:00.124Z,1.48
2023-07-24T19:59:03.183Z,1.80
2023-07-24T20:03:19.293Z,1.48
2023-07-24T20:07:22.904Z,1.48
2023-07-24T20:11:27.612Z,1.23
2023-07-24T20:15:30.642Z,1.30
2023-07-24T20:19:38.068Z,1.42
2023-07-24T20:23:43.229Z,1.92
2023-07-24T20:27:46.933Z,1.27
2023-07-24T20:31:50.177Z,1.33
2023-07-24T20:35:55.444Z,1.70
2023-07-24T20:39:58.646Z,0.95
2023-07-24T20:44:03.256Z,0.80
2023-07-24T20:48:08.474Z,1.25
2023-07-24T20:52:13.456Z,1.48
2023-07-24T20:56:18.437Z,1.20
2023-07-24T21:00:21.874Z,1.83
2023-07-24T21:04:25.396Z,2.17
2023-07-24T21:08:30.260Z,1.50
2023-07-24T21:12:33.812Z,1.58
2023-07-24T21:16:36.974Z,2.20
2023-07-24T21:20:42.371Z,2.15
2023-07-24T21:24:47.131Z,1.90
2023-07-24T21:28:50.613Z,2.53
2023-07-24T21:32:54.302Z,2.30
2023-07-24T21:36:57.564Z,2.65
2023-07-24T21:41:02.074Z,2.42
2023-07-24T21:45:06.306Z,2.60
2023-07-24T21:49:09.281Z,2.17
2023-07-24T21:53:12.450Z,3.03
2023-07-24T21:57:17.528Z,2.88
2023-07-24T22:01:22.441Z,3.58
2023-07-24T22:05:25.575Z,3.38
2023-07-24T22:09:29.071Z,3.30
2023-07-24T22:13:33.689Z,2.55
2023-07-24T22:17:37.927Z,2.50
2023-07-24T22:21:41.632Z,2.80
2023-07-24T22:25:45.097Z,3.35
2023-07-24T22:29:50.361Z,2.65
2023-07-24T22:33:53.734Z,3.10
2023-07-24T22:37:57.928Z,3.60
2023-07-24T22:42:02.542Z,3.25
2023-07-24T22:46:07.118Z,3.25
2023-07-24T22:50:11.551Z,3.85
2023-07-24T22:54:14.769Z,4.32
2023-07-24T22:58:18.162Z,3.75
2023-07-24T23:02:22.932Z,4.00
2023-07-24T23:06:26.957Z,3.17
2023-07-24T23:10:30.005Z,2.97
2023-07-24T23:14:33.777Z,3.30
2023-07-24T23:18:39.069Z,3.00
2023-07-24T23:22:42.754Z,2.80
2023-07-24T23:26:45.769Z,2.60
2023-07-24T23:30:50.502Z,2.85
2023-07-24T23:34:54.978Z,3.22
2023-07-24T23:38:58.393Z,2.28
2023-07-24T23:43:01.784Z,3.15
2023-07-24T23:47:05.451Z,2.88
2023-07-24T23:51:16.284Z,3.03
2023-07-24T23:55:20.003Z,2.85
2023-07-24T23:59:23.081Z,2.92
